• Join FlightAware (Why Join?)
  • Login
  • US Flag 
07:32PM EDT


 

Airport Tracker/Info


-or-


 

Live Flight TrackerFlight Track Log ✈ N559LC ✈ 03-Apr-2014 ✈ KMKC - KDTW

Flight Track Log - Related Links

Times and Time Zones

All times are in EDT time to prevent confusion due to time zone crossing. See the N559LC flight status page for this flight to view local times or setup timezone preferences in your user account.

Time Position Orientation Groundspeed Altitude Reporting Facility
EDT Latitude Longitude Course Direction KTS MPH feet Rate Location/Type
04:12PM 39.1167 -94.6000 237° Southwest 165 190 1,300  Level Kansas City TRACON
04:13PM 39.1000 -94.6333 237° Southwest 201 231 3,900 2,220 Climbing Kansas City TRACON
04:14PM 39.1500 -94.6333 360° North 253 291 5,100 1,980 Climbing Kansas City TRACON
04:15PM 39.1889 -94.5286 64° Northeast 295 339 8,100 2,580 Climbing Kansas City Center
04:16PM 39.2172 -94.4228 71° East 327 376 10,700 2,280 Climbing Kansas City Center
04:17PM 39.2600 -94.2875 68° East 372 428 12,900 2,160 Climbing Kansas City Center
04:18PM 39.3094 -94.1569 64° Northeast 418 481 15,300 2,700 Climbing Kansas City Center
04:19PM 39.3689 -93.9981 64° Northeast 435 501 18,400 2,580 Climbing Kansas City Center
04:20PM 39.4256 -93.8567 63° Northeast 456 525 20,700 2,280 Climbing Kansas City Center
04:21PM 39.4933 -93.6986 61° Northeast 472 543 23,200 2,160 Climbing Kansas City Center
04:22PM 39.5581 -93.5461 61° Northeast 483 556 25,100 1,680 Climbing Kansas City Center
04:23PM 39.6258 -93.3872 61° Northeast 501 577 26,700 1,500 Climbing Kansas City Center
04:24PM 39.6958 -93.2272 60° Northeast 511 588 28,200 1,620 Climbing Kansas City Center
04:25PM 39.7700 -93.0608 60° Northeast 532 612 30,100 2,100 Climbing Kansas City Center
04:26PM 39.8600 -92.8656 59° Northeast 535 616 32,600 1,380 Climbing Kansas City Center
04:27PM 39.9203 -92.6967 65° Northeast 527 606 33,000 180 Climbing Kansas City Center
04:28PM 39.9533 -92.5186 76° East 519 597 33,000  Level Kansas City Center
04:29PM 39.9831 -92.3400 78° East 517 595 33,000  Level Kansas City Center
04:30PM 40.0206 -92.1256 77° East 517 595 33,000  Level Kansas City Center
04:31PM 40.0506 -91.9483 77° East 515 593 33,000  Level Kansas City Center
04:32PM 40.0806 -91.7703 78° East 512 589 33,000 420 Level Kansas City Center
04:33PM 40.1089 -91.5919 78° East 510 587 33,900 1,320 Climbing Kansas City Center
04:34PM 40.1383 -91.4161 78° East 505 581 35,800 2,220 Climbing Kansas City Center
04:35PM 40.1733 -91.2053 78° East 502 578 38,600 2,220 Climbing Kansas City Center
04:36PM 40.1986 -91.0392 79° East 492 566 40,300 1,200 Climbing Chicago Center
04:37PM 40.2258 -90.8678 78° East 488 562 41,000 300 Climbing Chicago Center
04:38PM 40.2531 -90.6917 78° East 488 562 41,000  Level Chicago Center
04:39PM 40.2822 -90.5150 78° East 495 570 41,000  Level Chicago Center
04:40PM 40.3139 -90.3383 77° East 504 580 41,000  Level Chicago Center
04:41PM 40.3881 -90.1344 64° Northeast 518 596 41,000  Level Chicago Center
04:42PM 40.4531 -89.9667 63° Northeast 518 596 41,000  Level Chicago Center
04:44PM 40.5169 -89.8008 63° Northeast 518 596 41,000  Level Chicago Center
04:45PM 40.5792 -89.6353 64° Northeast 518 596 41,000  Level Chicago Center
04:46PM 40.6561 -89.4333 63° Northeast 519 597 41,000  Level Chicago Center
04:47PM 40.7206 -89.2628 63° Northeast 522 601 41,000  Level Chicago Center
04:48PM 40.7850 -89.0925 63° Northeast 522 601 41,000  Level Chicago Center
04:49PM 40.8483 -88.9208 64° Northeast 523 602 41,000 -180 Level Chicago Center
04:50PM 40.9117 -88.7503 64° Northeast 521 600 40,700 -780 Descending Chicago Center
04:51PM 40.9875 -88.5422 64° Northeast 521 600 39,500 -1,080 Descending Chicago Center
04:52PM 41.0475 -88.3686 65° Northeast 521 600 38,500 -1,020 Descending Chicago Center
04:53PM 41.1122 -88.1931 64° Northeast 528 608 37,400 -1,080 Descending Chicago Center
04:54PM 41.1800 -88.0147 63° Northeast 538 619 36,300 -1,140 Descending Chicago Center
04:55PM 41.2444 -87.8364 64° Northeast 538 619 35,100 -1,260 Descending Chicago Center
04:56PM 41.3172 -87.6264 65° Northeast 536 617 33,800 -1,020 Descending Chicago Center
04:57PM 41.3794 -87.4439 66° East 540 621 33,000 -420 Descending Chicago Center
04:58PM 41.4442 -87.2661 64° Northeast 536 617 33,000  Level Chicago Center
04:59PM 41.5044 -87.0881 66° East 533 613 33,000  Level Chicago Center
05:00PM 41.5664 -86.9111 65° Northeast 528 608 33,000  Level Chicago Center
05:01PM 41.6267 -86.7342 65° Northeast 528 608 33,000 -600 Level Chicago Center
05:02PM 41.7008 -86.5189 65° Northeast 529 609 31,800 -1,320 Descending Chicago Center
05:03PM 41.7619 -86.3344 66° East 537 618 30,300 -1,500 Descending Chicago Center
05:04PM 41.8025 -86.1461 74° East 526 605 28,800 -1,500 Descending Chicago Center
05:05PM 41.8397 -85.9575 75° East 515 593 27,300 -1,500 Descending Chicago Center
05:06PM 41.8725 -85.7822 76° East 504 580 25,800 -1,500 Descending Chicago Center
05:07PM 41.9067 -85.6053 75° East 492 566 24,200 -1,500 Descending Chicago Center
05:08PM 41.9394 -85.4328 76° East 475 547 22,700 -1,560 Descending Chicago Center
05:09PM 41.9767 -85.2325 76° East 462 532 21,000 -1,440 Descending Chicago Center
05:10PM 42.0028 -85.0928 76° East 453 521 19,800 -1,020 Descending Chicago Center
05:11PM 42.0361 -84.9025 77° East 441 507 19,000 -900 Descending Chicago Center
05:13PM 42.0372 -84.7425 89° East 434 499 18,000 -1,080 Descending Chicago Center
05:14PM 42.0000 -84.5900 108° East 432 497 16,800 -1,200 Descending Chicago Center
05:15PM 41.9556 -84.4514 113° Southeast 426 490 15,600 -1,260 Descending Chicago Center
05:16PM 41.9106 -84.3106 113° Southeast 417 480 14,300 -1,320 Descending Chicago Center
05:17PM 41.8625 -84.1603 113° Southeast 365 420 13,000 -1,140 Descending Cleveland Center
05:17PM 41.8600 -84.1508 110° East 386 444 13,000 -1,140 Level Cleveland Center
05:18PM 41.8475 -84.0403 99° East 318 366 11,900 -1,200 Descending Cleveland Center
05:18PM 41.8506 -84.0331 60° Northeast 328 377 11,800 -1,860 Descending Cleveland Center
05:19PM 41.8728 -83.9375 73° East 313 360 10,200 -1,860 Descending Cleveland Center
05:19PM 41.8836 -83.9014 68° East 315 362 9,900 -1,320 Descending Cleveland Center
05:20PM 41.9044 -83.8356 67° East 286 329 8,900 -1,380 Descending Cleveland Center
05:20PM 41.9139 -83.8031 69° East 292 336 8,500 -1,620 Descending Cleveland Center
05:21PM 41.9317 -83.7328 71° East 283 326 7,300 -1,560 Descending Cleveland Center
05:21PM 41.9394 -83.7058 69° East 283 326 6,900 -1,800 Descending Cleveland Center
05:21PM 41.9531 -83.6489 72° East 256 295 5,700 -1,800 Descending Cleveland Center
05:22PM 41.9642 -83.6161 65° Northeast 266 306 5,100 -1,680 Descending Cleveland Center
05:22PM 41.9817 -83.5800 57° Northeast 219 252 4,200 -1,500 Descending Cleveland Center
05:23PM 41.9964 -83.5483 58° Northeast 226 260 3,600 -1,200 Descending Cleveland Center
05:23PM 42.0142 -83.5144 55° Northeast 201 231 3,000 -540 Descending Cleveland Center
05:24PM 42.0361 -83.4794 50° Northeast 207 238 3,100  Climbing Cleveland Center
05:24PM 42.0542 -83.4611 37° Northeast 189 217 3,000  Descending Cleveland Center
05:25PM 42.0769 -83.4386 36° Northeast 192 221 3,100 -120 Climbing Cleveland Center
05:26PM 42.0992 -83.4225 28° Northeast 158 182 2,900 -540 Descending Cleveland Center
05:26PM 42.1197 -83.4083 27° Northeast 183 211 2,600 -840 Descending Cleveland Center
05:27PM 42.1322 -83.3989 29° Northeast 112 129 2,100 -720 Descending Cleveland Center
05:27PM 42.1472 -83.3881 28° Northeast 137 158 1,900 -660 Descending Cleveland Center
05:28PM 42.1681 -83.3703 32° Northeast 125 144 1,300 -720 Descending Cleveland Center
05:28PM 42.1767 -83.3656 22° Northeast 126 145 1,200 -360 Descending Cleveland Center
05:29PM 42.2139 -83.3383 28° Northeast 127 146 800 -420 Descending Cleveland Center
05:31PM 42.2000 -83.3500 56° Northeast  Level FlightAware Approximate
05:38PM 42.2124 -83.3534 56° Northeast  Level Estimated